createdAt,value
2022-10-18T00:01:00.096Z,70.40
2022-10-18T00:03:27.976Z,70.50
2022-10-18T00:05:55.828Z,70.40
2022-10-18T00:08:23.668Z,70.50
2022-10-18T00:10:53.096Z,70.40
2022-10-18T00:13:21.658Z,70.40
2022-10-18T00:15:50.729Z,70.50
2022-10-18T00:18:18.939Z,70.40
2022-10-18T00:20:46.711Z,71.20
2022-10-18T00:23:14.473Z,70.60
2022-10-18T00:25:42.332Z,70.40
2022-10-18T00:28:11.407Z,70.40
2022-10-18T00:30:39.279Z,70.30
2022-10-18T00:33:07.099Z,70.30
2022-10-18T00:35:36.132Z,70.40
2022-10-18T00:38:03.911Z,70.60
2022-10-18T00:40:31.683Z,70.50
2022-10-18T00:42:59.517Z,70.30
2022-10-18T00:45:28.820Z,70.30
2022-10-18T00:47:59.760Z,70.30
2022-10-18T00:50:29.984Z,70.30
2022-10-18T00:53:01.696Z,70.30
2022-10-18T00:55:32.118Z,70.30
2022-10-18T00:58:00.847Z,70.50
2022-10-18T01:00:30.007Z,70.40
2022-10-18T01:02:59.926Z,70.30
2022-10-18T01:05:28.133Z,70.30
2022-10-18T01:08:26.522Z,70.30
2022-10-18T01:11:03.547Z,70.10
2022-10-18T01:13:44.628Z,70.30
2022-10-18T01:16:22.118Z,70.40
2022-10-18T01:18:55.084Z,70.30
2022-10-18T01:21:36.228Z,70.20
2022-10-18T01:24:30.208Z,70.20
2022-10-18T01:27:30.978Z,70.10
2022-10-18T01:30:24.316Z,70.10
2022-10-18T01:32:54.902Z,70.30
2022-10-18T01:35:27.614Z,70.30
2022-10-18T01:37:59.981Z,70.40
2022-10-18T01:40:29.568Z,70.40
2022-10-18T01:42:57.564Z,70.30
2022-10-18T01:45:28.352Z,70.30
2022-10-18T01:47:57.372Z,70.30
2022-10-18T01:50:30.304Z,70.00
2022-10-18T01:52:58.353Z,70.30
2022-10-18T01:55:31.578Z,70.30
2022-10-18T01:58:06.904Z,70.20
2022-10-18T02:00:41.150Z,70.20
2022-10-18T02:03:18.053Z,70.30
2022-10-18T02:05:49.973Z,70.40
2022-10-18T02:08:26.526Z,70.20
2022-10-18T02:11:03.170Z,70.10
2022-10-18T02:13:34.595Z,70.20
2022-10-18T02:16:08.781Z,70.30
2022-10-18T02:18:40.686Z,70.30
2022-10-18T02:21:11.768Z,70.20
2022-10-18T02:23:39.927Z,70.10
2022-10-18T02:26:08.080Z,70.20
2022-10-18T02:28:35.946Z,70.20
2022-10-18T02:31:14.243Z,70.10
2022-10-18T02:33:51.745Z,70.10
2022-10-18T02:36:24.757Z,70.10
2022-10-18T02:38:58.828Z,70.10
2022-10-18T02:41:28.293Z,70.10
2022-10-18T02:43:56.057Z,70.10
2022-10-18T02:48:57.968Z,70.10
2022-10-18T02:51:26.200Z,70.10
2022-10-18T02:53:53.983Z,70.00
2022-10-18T02:56:21.793Z,70.00
2022-10-18T02:58:49.523Z,69.90
2022-10-18T03:01:17.347Z,69.90
2022-10-18T03:03:46.496Z,70.10
2022-10-18T03:06:14.253Z,70.10
2022-10-18T03:08:42.130Z,70.10
2022-10-18T03:11:09.996Z,70.10
2022-10-18T03:13:37.758Z,70.00
2022-10-18T03:16:05.982Z,70.70
2022-10-18T03:18:33.822Z,69.90
2022-10-18T03:21:06.725Z,70.00
2022-10-18T03:23:34.555Z,70.00
2022-10-18T03:26:02.624Z,70.00
2022-10-18T03:28:30.590Z,70.00
2022-10-18T03:31:02.256Z,69.80
2022-10-18T03:33:30.419Z,69.80
2022-10-18T03:35:58.253Z,70.70
2022-10-18T03:38:27.548Z,70.10
2022-10-18T03:40:55.399Z,70.00
2022-10-18T03:43:23.461Z,70.00
2022-10-18T03:45:51.416Z,69.80
2022-10-18T03:48:19.168Z,70.00
2022-10-18T03:50:46.883Z,70.10
2022-10-18T03:53:14.636Z,70.10
2022-10-18T03:55:43.928Z,70.00
2022-10-18T03:58:11.779Z,70.00
2022-10-18T04:00:39.555Z,69.90
2022-10-18T04:03:07.323Z,69.80
2022-10-18T04:05:36.521Z,69.90
2022-10-18T04:08:04.658Z,69.90
2022-10-18T04:10:32.428Z,69.90
2022-10-18T04:13:01.548Z,70.20
2022-10-18T04:15:29.278Z,70.10
2022-10-18T04:17:57.788Z,70.00
2022-10-18T04:20:26.338Z,69.90
2022-10-18T04:22:54.983Z,69.80
2022-10-18T04:25:23.246Z,69.80
2022-10-18T04:27:51.040Z,69.80
2022-10-18T04:30:20.293Z,69.90
2022-10-18T04:32:48.059Z,69.90
2022-10-18T04:35:15.897Z,69.80
2022-10-18T04:37:43.655Z,70.50
2022-10-18T04:40:12.391Z,69.60
2022-10-18T04:42:40.184Z,69.90
2022-10-18T04:45:09.000Z,69.90
2022-10-18T04:47:38.156Z,70.00
2022-10-18T04:50:07.003Z,70.00
2022-10-18T04:52:34.756Z,70.00
2022-10-18T04:55:02.489Z,69.80
2022-10-18T04:57:30.592Z,69.90
2022-10-18T04:59:58.578Z,70.00
2022-10-18T05:02:26.420Z,70.00
2022-10-18T05:04:55.514Z,69.90
2022-10-18T05:07:23.281Z,69.90
2022-10-18T05:09:51.036Z,69.80
2022-10-18T05:12:18.807Z,70.00
2022-10-18T05:14:46.534Z,70.10
2022-10-18T05:17:14.293Z,70.00
2022-10-18T05:19:42.065Z,70.10
2022-10-18T05:22:11.200Z,69.80
2022-10-18T05:24:38.960Z,70.00
2022-10-18T05:27:06.713Z,70.00
2022-10-18T05:29:34.498Z,70.00
2022-10-18T05:32:02.284Z,70.10
2022-10-18T05:34:31.904Z,70.30
2022-10-18T05:37:00.719Z,70.10
2022-10-18T05:39:29.869Z,70.00
2022-10-18T05:41:58.088Z,70.00
2022-10-18T05:44:25.864Z,70.00
2022-10-18T05:46:53.610Z,70.00
2022-10-18T05:49:21.822Z,70.20
2022-10-18T05:51:49.823Z,70.20
2022-10-18T05:54:17.728Z,70.40
2022-10-18T05:56:46.805Z,70.40
2022-10-18T05:59:14.884Z,70.50
2022-10-18T06:01:43.744Z,70.20
2022-10-18T06:04:11.842Z,70.10
2022-10-18T06:06:40.199Z,70.30
2022-10-18T06:09:09.075Z,70.00
2022-10-18T06:11:37.774Z,69.90
2022-10-18T06:14:08.468Z,69.90
2022-10-18T06:19:05.520Z,70.60
2022-10-18T06:21:33.360Z,69.90
2022-10-18T06:24:01.157Z,69.80
2022-10-18T06:26:29.684Z,70.00
2022-10-18T06:28:57.655Z,70.10
2022-10-18T06:31:26.780Z,70.10
2022-10-18T06:33:56.583Z,69.90
2022-10-18T06:36:24.941Z,69.90
2022-10-18T06:38:52.779Z,69.80
2022-10-18T06:41:21.965Z,69.80
2022-10-18T06:43:50.140Z,69.70
2022-10-18T06:46:17.991Z,69.80
2022-10-18T06:48:47.329Z,69.90
2022-10-18T06:51:15.165Z,69.90
2022-10-18T06:53:53.501Z,70.00
2022-10-18T06:56:31.075Z,69.80
2022-10-18T07:01:31.530Z,69.90
2022-10-18T07:04:00.663Z,69.90
2022-10-18T07:06:28.460Z,70.00
2022-10-18T07:08:57.020Z,70.00
2022-10-18T07:11:26.529Z,70.00
2022-10-18T07:13:55.278Z,69.90
2022-10-18T07:16:23.277Z,70.00
2022-10-18T07:18:52.542Z,70.00
2022-10-18T07:21:23.308Z,70.10
2022-10-18T07:23:52.754Z,70.20
2022-10-18T07:26:22.877Z,70.20
2022-10-18T07:28:54.125Z,70.10
2022-10-18T07:31:22.697Z,70.10
2022-10-18T07:33:50.468Z,70.30
2022-10-18T07:36:18.274Z,70.30
2022-10-18T07:38:47.413Z,70.20
2022-10-18T07:41:15.782Z,70.40
2022-10-18T07:43:46.879Z,70.40
2022-10-18T07:46:15.859Z,70.30
2022-10-18T07:48:43.973Z,70.40
2022-10-18T07:51:12.196Z,70.20
2022-10-18T07:53:40.056Z,70.40
2022-10-18T07:56:15.659Z,70.50
2022-10-18T07:58:43.878Z,70.70
2022-10-18T08:01:12.098Z,70.80
2022-10-18T08:03:40.277Z,70.80
2022-10-18T08:06:09.874Z,70.90
2022-10-18T08:08:38.893Z,70.80
2022-10-18T08:11:10.116Z,70.80
2022-10-18T08:13:37.969Z,70.90
2022-10-18T08:16:07.890Z,71.00
2022-10-18T08:18:36.530Z,71.00
2022-10-18T08:21:06.580Z,71.00
2022-10-18T08:23:34.616Z,71.10
2022-10-18T08:26:02.528Z,71.30
2022-10-18T08:28:31.949Z,71.20
2022-10-18T08:31:03.639Z,71.30
2022-10-18T08:33:31.482Z,71.40
2022-10-18T08:36:00.764Z,71.50
2022-10-18T08:38:30.624Z,71.50
2022-10-18T08:40:59.991Z,71.50
2022-10-18T08:46:12.475Z,72.30
2022-10-18T08:48:44.260Z,71.30
2022-10-18T08:51:22.499Z,71.20
2022-10-18T08:53:54.683Z,71.20
2022-10-18T08:56:24.418Z,71.00
2022-10-18T08:58:53.523Z,71.00
2022-10-18T09:01:30.989Z,70.80
2022-10-18T09:04:33.343Z,70.90
2022-10-18T09:07:16.178Z,70.70
2022-10-18T09:09:51.617Z,70.10
2022-10-18T09:12:35.932Z,69.70
2022-10-18T09:15:28.431Z,69.70
2022-10-18T09:18:09.131Z,69.70
2022-10-18T09:20:48.764Z,69.40
2022-10-18T09:23:20.774Z,69.20
2022-10-18T09:25:49.910Z,68.90
2022-10-18T09:28:28.134Z,68.60
2022-10-18T09:31:06.189Z,68.10
2022-10-18T09:33:43.661Z,68.10
2022-10-18T09:36:17.259Z,67.60
2022-10-18T09:38:48.557Z,67.50
2022-10-18T09:41:20.664Z,67.50
2022-10-18T09:43:53.641Z,67.20
2022-10-18T09:46:27.224Z,67.30
2022-10-18T09:48:58.883Z,67.10
2022-10-18T09:51:31.654Z,66.80
2022-10-18T09:54:20.238Z,66.40
2022-10-18T09:56:50.958Z,66.20
2022-10-18T09:59:41.325Z,65.90
2022-10-18T10:02:15.235Z,65.90
2022-10-18T10:04:43.177Z,65.80
2022-10-18T10:07:15.244Z,65.90
2022-10-18T10:09:47.176Z,65.50
2022-10-18T10:12:28.070Z,65.30
2022-10-18T10:14:55.878Z,65.20
2022-10-18T10:17:29.603Z,64.60
2022-10-18T10:20:02.048Z,64.10
2022-10-18T10:22:36.177Z,63.10
2022-10-18T10:25:04.441Z,63.20
2022-10-18T10:27:35.462Z,63.60
2022-10-18T10:30:07.245Z,63.60
2022-10-18T10:32:47.324Z,63.20
2022-10-18T10:35:41.522Z,63.10
2022-10-18T10:38:25.079Z,62.80
2022-10-18T10:40:53.639Z,63.70
2022-10-18T10:43:40.366Z,63.70
2022-10-18T10:46:11.238Z,62.90
2022-10-18T10:48:50.108Z,62.90
2022-10-18T10:51:28.905Z,63.00
2022-10-18T10:54:01.922Z,62.80
2022-10-18T10:56:31.844Z,62.60
2022-10-18T10:59:10.684Z,62.20
2022-10-18T11:01:38.603Z,62.30
2022-10-18T11:04:26.823Z,61.30
2022-10-18T11:07:03.708Z,60.60
2022-10-18T11:09:56.920Z,61.20
2022-10-18T11:12:33.155Z,61.00
2022-10-18T11:15:17.978Z,61.90
2022-10-18T11:17:52.037Z,61.40
2022-10-18T11:20:30.055Z,61.10
2022-10-18T11:23:01.573Z,61.60
2022-10-18T11:25:47.117Z,61.20
2022-10-18T11:28:25.122Z,61.20
2022-10-18T11:31:07.222Z,61.20
2022-10-18T11:34:08.226Z,60.90
2022-10-18T11:36:54.711Z,59.80
2022-10-18T11:39:30.900Z,61.10
2022-10-18T11:42:04.152Z,61.00
2022-10-18T11:44:38.371Z,60.70
2022-10-18T11:47:14.889Z,60.20
2022-10-18T11:49:56.477Z,59.90
2022-10-18T11:52:34.202Z,59.50
2022-10-18T11:55:13.301Z,59.50
2022-10-18T11:57:55.171Z,60.30
2022-10-18T12:00:34.028Z,60.10
2022-10-18T12:03:27.773Z,61.00
2022-10-18T12:05:58.708Z,60.80
2022-10-18T12:08:35.461Z,60.80
2022-10-18T12:11:10.467Z,61.10
2022-10-18T12:13:44.052Z,61.10
2022-10-18T12:16:12.501Z,61.00
2022-10-18T12:18:49.239Z,61.20
2022-10-18T12:21:25.306Z,60.50
2022-10-18T12:23:59.329Z,61.00
2022-10-18T12:26:28.555Z,60.80
2022-10-18T12:29:07.312Z,60.80
2022-10-18T12:31:40.309Z,60.60
2022-10-18T12:34:25.196Z,60.40
2022-10-18T12:37:12.550Z,60.90
2022-10-18T12:40:08.650Z,61.20
2022-10-18T12:42:34.699Z,60.80
2022-10-18T12:45:04.308Z,61.30
2022-10-18T12:47:33.122Z,61.40
2022-10-18T12:50:05.066Z,61.00
2022-10-18T12:52:36.903Z,61.20
2022-10-18T12:55:31.140Z,61.10
2022-10-18T12:58:05.222Z,60.10
2022-10-18T13:00:56.124Z,61.00
2022-10-18T13:03:55.469Z,60.80
2022-10-18T13:06:24.614Z,60.30
2022-10-18T13:09:27.774Z,60.90
2022-10-18T13:12:20.045Z,60.00
2022-10-18T13:15:12.500Z,60.40
2022-10-18T13:17:55.128Z,59.90
2022-10-18T13:20:27.547Z,60.30
2022-10-18T13:23:11.712Z,60.40
2022-10-18T13:25:52.996Z,60.00
2022-10-18T13:28:31.846Z,60.40
2022-10-18T13:31:05.534Z,60.30
2022-10-18T13:33:35.558Z,60.00
2022-10-18T13:36:05.980Z,60.30
2022-10-18T13:38:48.602Z,59.70
2022-10-18T13:41:19.873Z,59.80
2022-10-18T13:44:24.378Z,59.60
2022-10-18T13:47:34.789Z,59.10
2022-10-18T13:50:18.093Z,58.30
2022-10-18T13:53:19.079Z,60.20
2022-10-18T13:55:57.218Z,59.60
2022-10-18T13:58:33.162Z,60.40
2022-10-18T14:01:14.287Z,60.30
2022-10-18T14:04:08.928Z,60.50
2022-10-18T14:06:39.416Z,60.80
2022-10-18T14:09:25.513Z,60.60
2022-10-18T14:12:13.477Z,60.10
2022-10-18T14:14:45.046Z,60.50
2022-10-18T14:17:27.974Z,60.70
2022-10-18T14:20:00.732Z,60.70
2022-10-18T14:22:35.434Z,60.70
2022-10-18T14:25:03.628Z,61.10
2022-10-18T14:27:33.464Z,60.80
2022-10-18T14:30:15.165Z,60.90
2022-10-18T14:32:47.156Z,61.00
2022-10-18T14:35:32.475Z,60.80
2022-10-18T14:38:00.886Z,60.50
2022-10-18T14:40:38.815Z,60.70
2022-10-18T14:43:11.834Z,60.60
2022-10-18T14:45:39.854Z,60.70
2022-10-18T14:48:16.530Z,60.50
2022-10-18T14:50:46.084Z,60.40
2022-10-18T14:53:18.585Z,60.60
2022-10-18T14:55:55.156Z,60.50
2022-10-18T14:58:23.336Z,60.60
2022-10-18T15:00:51.164Z,60.40
2022-10-18T15:03:20.690Z,60.40
2022-10-18T15:05:56.530Z,60.20
2022-10-18T15:08:25.879Z,60.60
2022-10-18T15:10:54.653Z,60.50
2022-10-18T15:13:23.091Z,60.60
2022-10-18T15:15:51.213Z,60.40
2022-10-18T15:18:24.109Z,60.40
2022-10-18T15:21:10.915Z,60.30
2022-10-18T15:23:38.740Z,60.10
2022-10-18T15:26:09.342Z,60.30
2022-10-18T15:28:49.392Z,60.40
2022-10-18T15:31:25.197Z,60.50
2022-10-18T15:33:56.319Z,60.50
2022-10-18T15:36:31.143Z,60.70
2022-10-18T15:39:07.934Z,60.60
2022-10-18T15:41:45.628Z,60.80
2022-10-18T15:44:23.464Z,61.10
2022-10-18T15:46:53.868Z,61.00
2022-10-18T15:49:55.484Z,61.30
2022-10-18T15:52:42.232Z,61.20
2022-10-18T15:55:48.321Z,61.50
2022-10-18T15:58:20.319Z,61.40
2022-10-18T16:00:49.540Z,61.60
2022-10-18T16:03:18.892Z,61.70
2022-10-18T16:05:48.046Z,61.60
2022-10-18T16:08:21.419Z,61.70
2022-10-18T16:10:49.243Z,61.80
2022-10-18T16:13:17.127Z,61.50
2022-10-18T16:15:45.011Z,61.20
2022-10-18T16:18:15.967Z,60.80
2022-10-18T16:20:44.053Z,61.10
2022-10-18T16:23:21.763Z,61.20
2022-10-18T16:25:49.853Z,61.20
2022-10-18T16:28:20.028Z,61.20
2022-10-18T16:30:54.729Z,61.30
2022-10-18T16:33:22.589Z,61.40
2022-10-18T16:35:50.567Z,61.50
2022-10-18T16:38:32.398Z,61.60
2022-10-18T16:41:03.987Z,61.60
2022-10-18T16:43:32.294Z,61.80
2022-10-18T16:46:00.380Z,61.70
2022-10-18T16:48:28.848Z,61.80
2022-10-18T16:50:57.628Z,62.00
2022-10-18T16:53:27.825Z,61.90
2022-10-18T16:55:58.127Z,62.00
2022-10-18T16:58:28.346Z,62.20
2022-10-18T17:00:56.524Z,62.30
2022-10-18T17:03:24.780Z,62.40
2022-10-18T17:05:53.019Z,62.60
2022-10-18T17:08:24.448Z,62.70
2022-10-18T17:10:55.767Z,62.80
2022-10-18T17:13:25.058Z,62.90
2022-10-18T17:15:54.440Z,62.70
2022-10-18T17:18:26.238Z,62.80
2022-10-18T17:20:54.427Z,62.90
2022-10-18T17:23:22.208Z,63.00
2022-10-18T17:26:05.026Z,63.10
2022-10-18T17:28:38.697Z,63.20
2022-10-18T17:31:07.513Z,63.30
2022-10-18T17:33:35.754Z,63.40
2022-10-18T17:36:03.575Z,63.50
2022-10-18T17:38:31.435Z,63.50
2022-10-18T17:40:59.241Z,63.50
2022-10-18T17:43:27.051Z,63.70
2022-10-18T17:45:57.307Z,63.60
2022-10-18T17:48:25.507Z,63.70
2022-10-18T17:50:53.364Z,63.80
2022-10-18T17:53:22.959Z,63.90
2022-10-18T17:55:50.788Z,64.10
2022-10-18T17:58:18.569Z,64.20
2022-10-18T18:00:46.323Z,64.10
2022-10-18T18:03:15.450Z,64.30
2022-10-18T18:05:43.288Z,64.20
2022-10-18T18:08:11.058Z,64.20
2022-10-18T18:10:38.927Z,64.40
2022-10-18T18:13:06.759Z,64.40
2022-10-18T18:15:34.498Z,64.50
2022-10-18T18:18:02.374Z,64.50
2022-10-18T18:20:31.480Z,64.50
2022-10-18T18:22:59.203Z,64.60
2022-10-18T18:25:26.944Z,64.70
2022-10-18T18:27:55.590Z,64.60
2022-10-18T18:30:23.356Z,64.60
2022-10-18T18:32:51.104Z,64.70
2022-10-18T18:35:18.859Z,64.70
2022-10-18T18:37:51.011Z,64.80
2022-10-18T18:40:19.080Z,64.90
2022-10-18T18:43:01.613Z,64.70
2022-10-18T18:45:34.576Z,65.30
2022-10-18T18:48:02.442Z,64.90
2022-10-18T18:50:31.743Z,64.90
2022-10-18T18:53:00.975Z,65.00
2022-10-18T18:55:28.749Z,65.00
2022-10-18T18:57:56.506Z,65.00
2022-10-18T19:00:24.293Z,65.00
2022-10-18T19:02:52.032Z,65.00
2022-10-18T19:05:19.802Z,65.00
2022-10-18T19:07:47.556Z,64.90
2022-10-18T19:10:16.759Z,65.00
2022-10-18T19:12:44.492Z,65.20
2022-10-18T19:15:12.300Z,65.10
2022-10-18T19:17:40.094Z,65.20
2022-10-18T19:20:12.099Z,65.30
2022-10-18T19:22:39.981Z,65.40
2022-10-18T19:25:09.172Z,65.40
2022-10-18T19:27:38.533Z,65.50
2022-10-18T19:30:08.915Z,65.70
2022-10-18T19:32:36.686Z,65.50
2022-10-18T19:35:05.107Z,65.60
2022-10-18T19:37:33.219Z,65.50
2022-10-18T19:40:01.180Z,65.50
2022-10-18T19:42:31.193Z,65.50
2022-10-18T19:45:00.782Z,65.60
2022-10-18T19:47:28.562Z,65.70
2022-10-18T19:49:56.738Z,65.70
2022-10-18T19:52:24.521Z,65.80
2022-10-18T19:54:52.293Z,65.70
2022-10-18T19:57:20.078Z,65.70
2022-10-18T19:59:47.816Z,65.70
2022-10-18T20:02:16.937Z,65.60
2022-10-18T20:04:44.675Z,65.60
2022-10-18T20:07:12.388Z,65.50
2022-10-18T20:09:40.530Z,65.60
2022-10-18T20:12:08.402Z,65.60
2022-10-18T20:14:36.159Z,65.60
2022-10-18T20:17:05.688Z,65.60
2022-10-18T20:19:34.843Z,65.80
2022-10-18T20:22:02.552Z,65.70
2022-10-18T20:24:30.272Z,65.70
2022-10-18T20:26:58.041Z,65.70
2022-10-18T20:29:25.808Z,65.80
2022-10-18T20:31:55.487Z,65.80
2022-10-18T20:34:25.816Z,65.70
2022-10-18T20:36:56.478Z,65.60
2022-10-18T20:39:24.438Z,65.60
2022-10-18T20:41:52.159Z,65.70
2022-10-18T20:44:22.344Z,65.90
2022-10-18T20:46:50.085Z,65.80
2022-10-18T20:49:17.879Z,65.80
2022-10-18T20:51:45.907Z,65.90
2022-10-18T20:54:14.995Z,65.80
2022-10-18T20:56:43.192Z,65.80
2022-10-18T20:59:11.509Z,65.80
2022-10-18T21:01:40.202Z,65.70
2022-10-18T21:04:09.821Z,65.90
2022-10-18T21:06:40.187Z,65.80
2022-10-18T21:09:10.872Z,65.90
2022-10-18T21:11:41.704Z,65.90
2022-10-18T21:14:12.700Z,65.90
2022-10-18T21:16:41.058Z,65.90
2022-10-18T21:19:12.599Z,65.90
2022-10-18T21:21:42.531Z,65.90
2022-10-18T21:24:10.292Z,66.00
2022-10-18T21:26:39.390Z,66.10
2022-10-18T21:29:07.903Z,66.10
2022-10-18T21:31:37.179Z,66.10
2022-10-18T21:34:08.077Z,66.10
2022-10-18T21:36:37.939Z,66.00
2022-10-18T21:39:07.114Z,66.10
2022-10-18T21:41:36.300Z,66.10
2022-10-18T21:44:08.396Z,66.10
2022-10-18T21:46:39.138Z,66.10
2022-10-18T21:49:07.893Z,66.00
2022-10-18T21:51:35.913Z,65.90
2022-10-18T21:54:03.711Z,66.00
2022-10-18T21:56:33.370Z,66.00
2022-10-18T21:59:01.679Z,66.00
2022-10-18T22:01:33.074Z,66.00
2022-10-18T22:04:01.799Z,66.00
2022-10-18T22:06:32.362Z,65.90
2022-10-18T22:09:02.045Z,65.90
2022-10-18T22:11:31.903Z,66.00
2022-10-18T22:14:00.241Z,66.00
2022-10-18T22:16:29.717Z,66.00
2022-10-18T22:18:58.825Z,66.10
2022-10-18T22:21:27.009Z,66.20
2022-10-18T22:23:57.843Z,66.10
2022-10-18T22:26:27.105Z,66.10
2022-10-18T22:28:57.015Z,66.20
2022-10-18T22:31:27.237Z,66.20
2022-10-18T22:33:57.406Z,66.20
2022-10-18T22:36:25.555Z,66.30
2022-10-18T22:38:53.873Z,66.20
2022-10-18T22:41:21.677Z,66.10
2022-10-18T22:43:51.338Z,66.00
2022-10-18T22:46:19.846Z,66.00
2022-10-18T22:48:48.164Z,66.10
2022-10-18T22:51:17.287Z,66.10
2022-10-18T22:53:45.465Z,66.10
2022-10-18T22:56:15.216Z,66.20
2022-10-18T22:58:42.996Z,66.10
2022-10-18T23:01:13.224Z,66.00
2022-10-18T23:03:41.433Z,66.20
2022-10-18T23:06:20.900Z,66.30
2022-10-18T23:08:49.341Z,66.40
2022-10-18T23:11:17.519Z,66.30
2022-10-18T23:13:45.335Z,66.20
2022-10-18T23:16:13.064Z,66.20
2022-10-18T23:18:41.140Z,66.20
2022-10-18T23:21:10.792Z,66.20
2022-10-18T23:23:41.350Z,66.30
2022-10-18T23:26:12.231Z,66.30
2022-10-18T23:28:41.644Z,66.30
2022-10-18T23:31:11.163Z,66.20
2022-10-18T23:33:39.873Z,66.10
2022-10-18T23:36:08.973Z,66.30
2022-10-18T23:38:37.401Z,66.20
2022-10-18T23:41:07.021Z,66.20
2022-10-18T23:43:35.097Z,66.30
2022-10-18T23:46:02.900Z,66.30
2022-10-18T23:48:30.891Z,66.40
2022-10-18T23:50:58.709Z,66.30
2022-10-18T23:53:26.552Z,66.30
2022-10-18T23:55:55.083Z,66.30
2022-10-18T23:58:24.846Z,66.20
